Αρχική σελίδα
METAR-TAF:

METAR-TAF

Αεροδρόμια :

Mitiga International Airport

Τρίπολη, Λιβύη

γεωγραφικό πλάτος: 32-54N, γεωγραφικό μήκος: 13-17E, υψόμετρο: 11 μ

METAR: λείπει

Χρόνος: 01:42 (23:42 UTC)

Πρόγνωση Καιρού

Η αναφορά έγινε 6 ώρες και 42 λεπτά πριν, στις 17:00 UTC
Η πρόγνωση ισχύει από τις 21 στις 18 UTC έως τις 22 στις 18 UTC
Άνεμος 14 kt από Δ/ΝΔ
Ορατότητα: 8000 μ
Διάσπαρτα νέφη σε ύψος 2500 πόδια
Διάσπαρτα νέφη σε ύψος 8000 πόδια
Καθιστάμενος
από 22 στις 14 UTC έως τις 22 στις 16 UTC
Άνεμος 15 kt από Β

TAF: HLLM 211700Z 2118/2218 24014KT 8000 SCT025 SCT080 BECMG 2214/2216 36015KT

Μετεωρολογικές αναφορές και προγνώσεις για περισσότερα από 4000 αεροδρόμια (δελτία METAR και TAF).

Οι διαθέσιμοι σταθμοί απεικονίζονται στο χάρτη με κίτρινες και κόκκινες κουκκίδες.

Μετακινήστε το ποντίκι πάνω από τις κουκκίδες για να δείτε το όνομα του σταθμού.

Στη συνέχεια, κάντε κλικ για να δείτε τις μετεωρολογικές αναφορές και τις προγνώσεις καιρού.

Για να αλλάξετε το χάρτη: κάντε κλικ στα πράσινα κουμπιά με τον μαύρο σταυρό για να ζουμάρετε, στο πράσινο κουμπί με την παύλα για να αφαιρέσετε το ζουμ ή στα πράσινα βέλη για να αντιπαραβάλλετε χάρτες.


METAR-TAF: